Providence Village's Hourly Summary for Wednesday, March 15, 2017
Hour Temp
(f)
RH
(%)
Solar Rad.
(MJ/m2)
Rainfall
(in)
Wind
(mph)
3/15/2017 12:00 AM 47 54 0 0 4.34
3/15/2017 1:00 AM 46 52 0 0 6.84
3/15/2017 2:00 AM 44 55 0 0 7.71
3/15/2017 3:00 AM 42 58 0 0 7.08
3/15/2017 4:00 AM 43 57 0 0 6.75
3/15/2017 5:00 AM 42 57 0 0 6.59
3/15/2017 6:00 AM 42 61 0 0 5.74
3/15/2017 7:00 AM 42 60 0 0 7.2
3/15/2017 8:00 AM 42 63 0.01 0 6.95
3/15/2017 9:00 AM 43 65 0.17 0 7.5
3/15/2017 10:00 AM 44 62 0.62 0 9.37
3/15/2017 11:00 AM 46 59 1.17 0 8.44
3/15/2017 12:00 PM 48 55 1.62 0 8.51
3/15/2017 1:00 PM 51 51 2.18 0 7.8
3/15/2017 2:00 PM 54 47 2.94 0 7.78
3/15/2017 3:00 PM 57 42 2.9 0 7.75
3/15/2017 4:00 PM 59 40 2.59 0 7.4
3/15/2017 5:00 PM 61 41 2.08 0 5.88
3/15/2017 6:00 PM 62 41 1.41 0 6.04
3/15/2017 7:00 PM 61 42 0.66 0 7.03
3/15/2017 8:00 PM 60 46 0.08 0 6.52
3/15/2017 9:00 PM 58 52 0 0 4.44
3/15/2017 10:00 PM 56 54 0 0 6.02
3/15/2017 11:00 PM 54 59 0 0 5.55
Data Summary 50 53 18.43 0.00 6.88